Monday, October 23, 2017, 1:20 PM EDT
Back to Local

KDUJ, Du Bois-jefferson County

Location: Reynoldsville, PA, United States Lat: 41.183
Local Time: 1:20 PM EDT (17:20 GMT) Lon: -78.883
Time Zone: US/Eastern Elev: 1820 ft

Show me the last for .
Show Coded

Time T Td Feel RH Dir Speed Gust Alt SLP Vis Weather Sky Remarks
2017-10-23 12:53 64 53 - 67 130° 12 25 30.03 30.01 10 SCT023 BKN029 None
2017-10-23 11:53 63 54 - 72 140° 14 26 30.07 30.05 10 BKN019 None
2017-10-23 11:31 62 54 - 74 130° 16 26 30.07 - 10 BKN018 None
2017-10-23 10:53 61 53 - 75 140° 13 22 30.08 30.06 10 FEW060 None
2017-10-23 09:53 60 52 - 74 150° 9 21 30.10 30.09 10 SCT060 BKN075 None
2017-10-23 08:53 57 50 - 77 130° 10 - 30.12 30.11 10 BKN085 None
2017-10-23 07:53 55 50 - 83 130° 12 - 30.12 30.11 10 CLR 6-hr Min Temp (8am): 55.0°F
6-hr Max Temp (8am): 59.0°F
2017-10-23 06:53 55 50 - 83 130° 13 - 30.14 30.12 10 CLR None
2017-10-23 05:53 56 50 - 80 130° 8 - 30.16 30.14 10 CLR None
2017-10-23 04:53 58 51 - 77 140° 8 - 30.17 30.15 10 CLR None
2017-10-23 03:53 58 51 - 77 140° 9 - 30.18 30.15 10 CLR None
2017-10-23 02:53 58 51 - 77 130° 10 - 30.19 30.17 10 CLR None
2017-10-23 01:53 59 52 - 77 140° 10 - 30.20 30.17 10 CLR 6-hr Min Temp (2am): 59.0°F
6-hr Max Temp (2am): 64.9°F
2017-10-23 00:53 60 52 - 74 140° 8 - 30.21 30.18 10 CLR 24-hr Min Temp (1am): 50.0°F
24-hr Max Temp (1am): 73.9°F
2017-10-22 23:53 61 52 - 72 130° 9 - 30.22 30.19 10 CLR None
2017-10-22 22:53 60 51 - 72 120° 9 - 30.23 30.21 10 CLR None
2017-10-22 21:53 61 51 - 69 130° 8 - 30.25 30.24 10 CLR None
2017-10-22 20:53 63 50 - 62 130° 8 - 30.25 30.24 10 CLR None
2017-10-22 19:53 65 50 - 58 150° 7 16 30.25 30.24 10 CLR 6-hr Min Temp (8pm): 64.9°F
6-hr Max Temp (8pm): 73.0°F
2017-10-22 18:53 67 49 - 52 130° 8 - 30.23 30.22 10 CLR None
2017-10-22 17:53 69 48 - 47 130° 6 - 30.22 30.21 10 CLR None
2017-10-22 16:53 70 49 - 47 110° 6 - 30.23 30.21 10 CLR None
2017-10-22 15:53 73 49 76 42 150° 8 - 30.25 30.23 10 CLR None
2017-10-22 14:53 72 48 76 42 170° 6 - 30.25 30.23 10 CLR None
2017-10-22 13:53 73 50 76 44 150° 8 - 30.28 30.26 10 CLR 6-hr Min Temp (2pm): 53.1°F
6-hr Max Temp (2pm): 73.9°F

Support USWX by starting your Amazon purchase here.